Time;durP1;ratioP1;P1;durP2;ratioP2;P2;SDS_P1;SDS_P2;PMS_P1;PMS_P2;Temp;Humidity;BMP_temperature;BMP_pressure;BME280_temperature;BME280_humidity;BME280_pressure;Samples;Min_cycle;Max_cycle;Signal;HPM_P1;HPM_P2
2022/03/08 00:02:18;;;;;;;13.18;3.63;;;24.20;65.90;;;;;;5052224;28;20020;-70
2022/03/08 00:04:45;;;;;;;16.38;4.22;;;24.20;66.00;;;;;;5051886;28;20025;-71
2022/03/08 00:07:12;;;;;;;15.32;3.88;;;24.20;65.90;;;;;;5051619;28;20032;-70
2022/03/08 00:09:39;;;;;;;15.43;3.15;;;24.20;65.90;;;;;;5050889;28;20029;-70
2022/03/08 00:12:07;;;;;;;13.18;4.72;;;24.20;65.90;;;;;;5049665;28;20045;-70
2022/03/08 00:14:34;;;;;;;11.70;3.83;;;24.10;65.90;;;;;;5049031;28;20017;-70
2022/03/08 00:17:02;;;;;;;15.00;3.97;;;24.10;66.20;;;;;;5050095;28;20052;-70
2022/03/08 00:19:28;;;;;;;15.85;3.65;;;24.10;66.50;;;;;;5046664;28;20118;-70
2022/03/08 00:21:55;;;;;;;11.35;4.10;;;24.10;66.40;;;;;;5051981;28;20139;-70
2022/03/08 00:24:22;;;;;;;9.93;3.15;;;24.10;66.40;;;;;;5051005;28;20033;-70
2022/03/08 00:26:48;;;;;;;22.85;3.38;;;24.10;66.30;;;;;;5052222;28;20033;-70
2022/03/08 00:29:14;;;;;;;19.48;3.67;;;24.10;66.30;;;;;;5051640;28;20057;-70
2022/03/08 00:31:41;;;;;;;18.08;5.43;;;24.10;66.40;;;;;;5048493;28;20028;-70
2022/03/08 00:34:07;;;;;;;11.25;2.70;;;24.10;66.40;;;;;;5048462;28;20021;-70
2022/03/08 00:36:35;;;;;;;12.10;3.55;;;24.10;66.30;;;;;;5050887;28;20035;-70
2022/03/08 00:39:02;;;;;;;15.90;4.55;;;24.00;66.20;;;;;;5051293;28;20024;-70
2022/03/08 00:41:29;;;;;;;19.70;3.88;;;24.10;66.30;;;;;;5050451;28;20384;-70
2022/03/08 00:43:55;;;;;;;29.00;4.57;;;24.00;66.30;;;;;;5049619;28;20028;-70
2022/03/08 00:46:22;;;;;;;18.20;5.22;;;24.00;66.40;;;;;;5050392;28;20025;-70
2022/03/08 00:48:49;;;;;;;17.23;3.58;;;24.00;66.40;;;;;;5050893;28;20021;-70
2022/03/08 00:51:15;;;;;;;17.15;3.13;;;24.00;66.40;;;;;;5044398;28;20025;-70
2022/03/08 00:53:42;;;;;;;21.40;3.88;;;24.00;66.40;;;;;;5050665;28;20104;-70
2022/03/08 00:56:08;;;;;;;15.52;3.85;;;24.00;66.40;;;;;;5041831;28;20029;-70
2022/03/08 00:58:36;;;;;;;16.05;3.20;;;24.00;66.40;;;;;;5050521;28;20032;-72
2022/03/08 01:01:03;;;;;;;14.43;4.45;;;24.00;66.40;;;;;;5050139;28;20009;-70
2022/03/08 01:03:30;;;;;;;11.15;4.28;;;24.00;66.50;;;;;;5045648;28;20149;-70
2022/03/08 01:05:56;;;;;;;8.93;3.78;;;24.00;66.50;;;;;;5050554;28;20033;-70
2022/03/08 01:08:23;;;;;;;14.65;3.08;;;24.00;66.50;;;;;;5051783;28;20029;-70
2022/03/08 01:10:50;;;;;;;26.45;4.85;;;24.00;66.40;;;;;;5031442;28;20041;-70
2022/03/08 01:13:16;;;;;;;23.30;5.28;;;23.90;66.50;;;;;;5050989;28;20021;-70
2022/03/08 01:15:43;;;;;;;21.15;4.75;;;23.90;66.60;;;;;;5051342;28;20033;-70
2022/03/08 01:18:09;;;;;;;17.27;3.97;;;23.90;66.70;;;;;;5042067;28;20057;-70
2022/03/08 01:20:36;;;;;;;10.80;3.17;;;23.90;66.70;;;;;;5052104;28;20027;-70
2022/03/08 01:23:02;;;;;;;32.78;4.22;;;23.90;66.80;;;;;;5050311;28;20044;-70
2022/03/08 01:25:29;;;;;;;21.40;3.63;;;23.90;67.10;;;;;;5051667;28;20010;-70
2022/03/08 01:27:56;;;;;;;14.52;3.63;;;23.90;67.30;;;;;;5047809;28;20108;-70
2022/03/08 01:30:24;;;;;;;34.00;4.88;;;23.90;67.50;;;;;;5051149;28;20025;-70
2022/03/08 01:32:51;;;;;;;41.17;4.57;;;23.90;67.90;;;;;;5046447;28;20021;-70
2022/03/08 01:35:18;;;;;;;18.85;4.57;;;23.90;68.10;;;;;;5047940;28;20036;-71
2022/03/08 01:37:45;;;;;;;22.25;4.00;;;23.90;67.90;;;;;;5050407;28;20032;-71
2022/03/08 01:40:15;;;;;;;17.05;3.63;;;23.80;67.50;;;;;;5048041;28;20493;-70
2022/03/08 01:42:46;;;;;;;18.27;4.38;;;23.90;67.50;;;;;;5047787;28;20021;-70
2022/03/08 01:45:15;;;;;;;14.98;4.50;;;23.90;67.70;;;;;;5044889;28;20025;-70
2022/03/08 01:47:41;;;;;;;14.93;3.90;;;23.80;67.60;;;;;;5051560;28;20039;-70
2022/03/08 01:50:10;;;;;;;14.50;3.63;;;23.80;67.80;;;;;;5043110;28;20024;-70
2022/03/08 01:52:38;;;;;;;15.98;4.13;;;23.80;67.90;;;;;;5047909;28;20025;-70
2022/03/08 01:55:06;;;;;;;13.18;3.80;;;23.80;67.90;;;;;;5050353;28;20029;-70
2022/03/08 01:57:33;;;;;;;14.65;3.45;;;23.80;67.90;;;;;;5048929;28;20097;-70
2022/03/08 01:59:59;;;;;;;15.20;3.60;;;23.70;67.80;;;;;;5050719;28;20074;-70
2022/03/08 02:02:26;;;;;;;15.25;3.42;;;23.80;67.90;;;;;;5049798;28;20117;-70
2022/03/08 02:04:53;;;;;;;13.10;5.13;;;23.70;67.90;;;;;;5040230;28;20031;-70
2022/03/08 02:07:19;;;;;;;9.38;3.63;;;23.80;67.90;;;;;;5047579;28;20025;-70
2022/03/08 02:09:46;;;;;;;9.52;3.08;;;23.80;67.80;;;;;;5033112;28;20413;-70
2022/03/08 02:12:12;;;;;;;25.98;4.75;;;23.70;67.70;;;;;;5048152;28;20095;-70
2022/03/08 02:14:42;;;;;;;11.30;2.28;;;23.70;67.80;;;;;;5043340;28;20032;-71
2022/03/08 02:17:08;;;;;;;18.73;4.10;;;23.70;67.80;;;;;;5049987;28;22074;-70
2022/03/08 02:19:35;;;;;;;16.45;3.42;;;23.70;67.80;;;;;;5049554;28;20028;-70
2022/03/08 02:22:01;;;;;;;17.58;3.92;;;23.70;67.80;;;;;;5049142;28;20112;-70
2022/03/08 02:24:28;;;;;;;13.32;4.65;;;23.70;67.90;;;;;;5048252;28;20017;-70
2022/03/08 02:26:55;;;;;;;23.20;3.85;;;23.70;68.00;;;;;;5045133;28;20083;-70
2022/03/08 02:29:21;;;;;;;13.27;3.80;;;23.60;67.90;;;;;;5050416;28;20430;-71
2022/03/08 02:31:48;;;;;;;11.52;4.00;;;23.60;67.90;;;;;;5049401;28;20104;-71
2022/03/08 02:34:15;;;;;;;10.77;3.10;;;23.60;68.00;;;;;;5050321;28;20494;-70
2022/03/08 02:36:59;;;;;;;11.70;3.78;;;23.60;68.00;;;;;;5046427;28;20061;-70
2022/03/08 02:39:26;;;;;;;16.80;4.78;;;23.60;68.10;;;;;;5048691;28;20024;-71
2022/03/08 02:41:52;;;;;;;17.65;4.25;;;23.60;68.10;;;;;;5047862;28;20523;-70
2022/03/08 02:44:19;;;;;;;12.38;4.22;;;23.60;68.10;;;;;;5045842;28;20028;-70
2022/03/08 02:46:45;;;;;;;11.93;3.25;;;23.60;68.10;;;;;;5053671;28;20029;-70
2022/03/08 02:49:12;;;;;;;21.70;4.38;;;23.60;68.10;;;;;;5049630;28;20021;-69
2022/03/08 02:51:38;;;;;;;77.05;8.85;;;23.60;68.10;;;;;;5054342;28;20501;-70
2022/03/08 02:54:05;;;;;;;26.17;7.63;;;23.50;68.40;;;;;;5052437;28;20384;-70
2022/03/08 02:56:31;;;;;;;23.23;8.00;;;23.60;68.40;;;;;;5052698;28;20428;-70
2022/03/08 02:58:58;;;;;;;19.20;7.55;;;23.60;68.40;;;;;;5051329;28;20027;-70
2022/03/08 03:01:25;;;;;;;13.77;4.63;;;23.50;68.30;;;;;;5054573;28;20071;-70
2022/03/08 03:03:52;;;;;;;11.20;3.83;;;23.50;68.30;;;;;;5048269;28;20052;-70
2022/03/08 03:06:18;;;;;;;9.18;4.25;;;23.50;68.20;;;;;;5050433;28;20013;-70
2022/03/08 03:08:45;;;;;;;10.88;3.90;;;23.50;68.30;;;;;;5047012;28;20071;-70
2022/03/08 03:11:11;;;;;;;16.52;4.55;;;23.50;68.20;;;;;;5052873;28;20048;-70
2022/03/08 03:13:38;;;;;;;17.65;3.78;;;23.50;68.30;;;;;;5053079;28;20025;-70
2022/03/08 03:16:04;;;;;;;15.23;4.35;;;23.40;68.40;;;;;;5047263;28;20128;-69
2022/03/08 03:18:31;;;;;;;30.67;5.28;;;23.40;68.40;;;;;;5054032;28;20025;-70
2022/03/08 03:20:57;;;;;;;22.55;4.70;;;23.40;68.70;;;;;;5052514;28;20017;-70
2022/03/08 03:23:24;;;;;;;23.92;4.70;;;23.40;68.80;;;;;;5051626;28;20059;-70
2022/03/08 03:25:50;;;;;;;19.55;3.95;;;23.40;68.40;;;;;;5053191;28;20025;-70
2022/03/08 03:28:17;;;;;;;20.90;3.70;;;23.40;68.10;;;;;;5052529;28;20079;-69
2022/03/08 03:30:43;;;;;;;20.73;5.90;;;23.40;68.20;;;;;;5050263;28;20135;-69
2022/03/08 03:33:10;;;;;;;15.55;3.90;;;23.40;68.10;;;;;;5050049;28;20024;-69
2022/03/08 03:35:36;;;;;;;12.93;3.40;;;23.30;68.30;;;;;;5047852;28;20044;-69
2022/03/08 03:38:03;;;;;;;15.35;3.28;;;23.30;68.10;;;;;;5052695;28;20097;-70
2022/03/08 03:40:29;;;;;;;9.73;3.42;;;23.30;68.20;;;;;;5045424;28;20029;-70
2022/03/08 03:42:55;;;;;;;38.45;4.53;;;23.30;68.10;;;;;;5053389;28;20021;-69
2022/03/08 03:45:22;;;;;;;37.10;6.57;;;23.30;68.30;;;;;;5042208;28;20017;-69
2022/03/08 03:47:48;;;;;;;24.30;4.38;;;23.20;68.50;;;;;;5050398;28;20013;-69
2022/03/08 03:50:15;;;;;;;25.95;3.33;;;23.20;68.50;;;;;;5047131;28;20024;-70
2022/03/08 03:52:41;;;;;;;21.35;4.45;;;23.20;68.50;;;;;;5054085;28;20031;-69
2022/03/08 03:55:08;;;;;;;15.48;3.15;;;23.20;68.50;;;;;;5047535;28;20499;-69
2022/03/08 03:57:35;;;;;;;16.75;4.05;;;23.20;69.10;;;;;;5053262;28;20021;-70
2022/03/08 04:00:01;;;;;;;21.08;4.78;;;23.20;68.50;;;;;;5051199;28;20029;-69
2022/03/08 04:02:28;;;;;;;30.42;7.72;;;23.10;69.20;;;;;;5053184;28;20023;-70
2022/03/08 04:04:54;;;;;;;27.20;14.13;;;23.10;69.30;;;;;;5051575;28;20028;-72
2022/03/08 04:07:20;;;;;;;31.85;22.83;;;23.10;69.10;;;;;;5041368;28;20034;-71
2022/03/08 04:09:47;;;;;;;46.53;12.15;;;23.10;69.30;;;;;;5050499;28;20029;-69
2022/03/08 04:12:14;;;;;;;29.65;9.93;;;23.10;69.60;;;;;;5052046;28;20041;-70
2022/03/08 04:14:40;;;;;;;60.45;11.00;;;23.10;69.90;;;;;;5053558;28;20115;-69
2022/03/08 04:17:07;;;;;;;49.58;12.07;;;23.10;69.80;;;;;;5048530;28;20509;-68
2022/03/08 04:19:34;;;;;;;40.63;12.52;;;23.10;69.60;;;;;;5051202;28;20442;-70
2022/03/08 04:22:00;;;;;;;26.23;9.82;;;23.10;69.50;;;;;;5049919;28;20031;-72
2022/03/08 04:24:27;;;;;;;28.88;7.68;;;23.10;69.50;;;;;;5048654;28;20021;-70
2022/03/08 04:26:54;;;;;;;30.98;18.92;;;23.10;69.40;;;;;;5044204;28;20521;-70
2022/03/08 04:29:20;;;;;;;49.13;18.10;;;23.10;69.50;;;;;;5050895;28;20036;-69
2022/03/08 04:31:47;;;;;;;32.53;12.27;;;23.10;69.70;;;;;;5046325;28;20021;-71
2022/03/08 04:34:13;;;;;;;24.25;10.13;;;23.10;69.70;;;;;;5049471;28;20017;-71
2022/03/08 04:36:40;;;;;;;17.50;7.95;;;23.10;69.70;;;;;;5043201;28;20505;-71
2022/03/08 04:39:06;;;;;;;16.55;4.82;;;23.10;69.80;;;;;;5046388;28;20387;-71
2022/03/08 04:41:34;;;;;;;22.05;5.18;;;23.10;69.80;;;;;;5051474;28;20049;-72
2022/03/08 04:44:00;;;;;;;18.73;5.03;;;23.00;69.80;;;;;;5050033;28;20100;-75
2022/03/08 04:47:06;;;;;;;12.50;4.07;;;23.00;69.90;;;;;;5052161;28;20031;-71
2022/03/08 04:49:57;;;;;;;12.73;4.65;;;23.00;69.90;;;;;;5045912;28;20033;-74
2022/03/08 04:52:24;;;;;;;32.88;5.18;;;23.00;70.00;;;;;;5029817;28;20446;-72
2022/03/08 04:54:51;;;;;;;22.52;4.70;;;23.00;70.10;;;;;;5047946;28;20600;-71
2022/03/08 04:57:17;;;;;;;12.48;2.75;;;23.00;70.10;;;;;;5052056;28;20458;-71
2022/03/08 04:59:44;;;;;;;95.57;9.10;;;23.00;70.10;;;;;;5052064;28;20031;-71
2022/03/08 05:02:10;;;;;;;94.55;13.73;;;23.00;70.30;;;;;;5045190;28;20029;-71
2022/03/08 05:04:37;;;;;;;94.80;9.75;;;23.00;70.60;;;;;;5046813;28;20029;-72
2022/03/08 05:07:03;;;;;;;88.60;8.82;;;23.00;70.80;;;;;;5051475;28;20100;-71
2022/03/08 05:09:30;;;;;;;51.35;7.43;;;23.00;70.90;;;;;;5053009;28;20391;-71
2022/03/08 05:11:58;;;;;;;42.63;5.20;;;23.00;70.80;;;;;;5041350;28;20448;-72
2022/03/08 05:14:24;;;;;;;46.92;7.53;;;22.90;70.80;;;;;;5049237;28;20025;-72
2022/03/08 05:16:52;;;;;;;28.20;6.55;;;23.00;71.00;;;;;;5031305;28;20045;-72
2022/03/08 05:19:19;;;;;;;28.17;5.10;;;23.00;71.40;;;;;;5050524;28;20021;-72
2022/03/08 05:21:45;;;;;;;42.17;6.10;;;22.90;71.20;;;;;;5045974;28;20024;-71
2022/03/08 05:24:12;;;;;;;36.60;7.28;;;22.90;71.40;;;;;;5048652;28;20475;-71
2022/03/08 05:26:38;;;;;;;83.30;9.63;;;22.90;71.60;;;;;;5045324;28;20690;-71
2022/03/08 05:29:08;;;;;;;41.83;6.80;;;22.90;71.40;;;;;;5050391;28;20108;-71
2022/03/08 05:31:35;;;;;;;32.75;5.90;;;23.00;71.30;;;;;;5034585;28;20392;-71
2022/03/08 05:34:01;;;;;;;23.33;5.28;;;23.00;71.30;;;;;;5029838;28;20020;-71
2022/03/08 05:36:28;;;;;;;19.63;5.50;;;23.00;71.60;;;;;;5052757;28;20392;-71
2022/03/08 05:38:55;;;;;;;23.70;4.30;;;23.00;71.70;;;;;;5032780;28;20110;-71
2022/03/08 05:41:21;;;;;;;19.10;5.63;;;23.00;71.60;;;;;;5049861;28;20025;-71
2022/03/08 05:43:48;;;;;;;17.42;3.35;;;23.00;71.90;;;;;;5046080;28;20364;-71
2022/03/08 05:46:14;;;;;;;15.68;3.70;;;23.00;72.10;;;;;;5032261;28;20644;-71
2022/03/08 05:48:40;;;;;;;15.27;3.95;;;23.00;72.10;;;;;;5051531;28;20093;-71
2022/03/08 05:51:07;;;;;;;13.48;4.22;;;23.00;71.90;;;;;;5050748;28;20025;-71
2022/03/08 05:53:33;;;;;;;33.85;4.55;;;23.00;72.00;;;;;;5052587;28;20458;-71
2022/03/08 05:56:00;;;;;;;18.27;4.43;;;23.00;72.00;;;;;;5049625;28;20118;-71
2022/03/08 05:58:26;;;;;;;15.50;3.65;;;23.00;71.90;;;;;;5045617;28;20018;-71
2022/03/08 06:00:53;;;;;;;11.93;4.03;;;23.10;71.90;;;;;;5045759;28;20029;-71
2022/03/08 06:03:19;;;;;;;15.40;4.20;;;23.10;72.00;;;;;;5049376;28;20056;-71
2022/03/08 16:19:23;;;;;;;16.63;5.90;;;28.30;61.40;;;;;;5083005;27;20441;-71
2022/03/08 16:21:50;;;;;;;43.70;7.93;;;28.30;59.80;;;;;;5086619;28;20051;-72
2022/03/08 16:24:17;;;;;;;30.10;7.72;;;28.30;59.70;;;;;;5086066;28;20020;-71
2022/03/08 16:26:44;;;;;;;32.45;8.98;;;28.30;59.90;;;;;;5086536;28;20082;-71
2022/03/08 16:29:12;;;;;;;19.33;6.38;;;28.30;59.90;;;;;;5085314;28;20055;-71
2022/03/08 16:31:39;;;;;;;14.50;4.55;;;28.30;59.60;;;;;;5082261;28;20375;-72
2022/03/08 16:34:06;;;;;;;15.75;4.10;;;28.30;60.00;;;;;;5086533;28;20024;-74
2022/03/08 16:36:32;;;;;;;14.77;3.95;;;28.30;59.40;;;;;;5085754;28;20021;-75
2022/03/08 16:39:00;;;;;;;15.85;5.15;;;28.30;59.40;;;;;;5083408;28;20020;-72
2022/03/08 16:41:26;;;;;;;19.50;3.88;;;28.30;59.40;;;;;;5065111;28;20367;-73
2022/03/08 16:43:53;;;;;;;19.30;4.85;;;28.30;59.50;;;;;;5084082;28;20107;-70
2022/03/08 16:46:19;;;;;;;20.83;4.25;;;28.20;59.50;;;;;;5082919;28;20028;-72
2022/03/08 16:48:49;;;;;;;18.67;4.82;;;28.20;59.60;;;;;;5084045;28;20142;-73
2022/03/08 16:51:20;;;;;;;21.05;5.57;;;28.20;59.80;;;;;;5083412;28;20085;-71
2022/03/08 16:53:47;;;;;;;22.35;6.75;;;28.20;60.20;;;;;;5073580;28;20399;-73
2022/03/08 16:56:14;;;;;;;19.60;5.38;;;28.10;60.30;;;;;;5081048;28;20804;-74
2022/03/08 16:58:41;;;;;;;18.38;5.00;;;28.10;60.20;;;;;;5084128;28;20042;-73
2022/03/08 17:01:07;;;;;;;15.48;4.03;;;28.00;60.10;;;;;;5085034;28;20028;-74
2022/03/08 17:03:36;;;;;;;16.45;5.05;;;28.00;60.20;;;;;;5080117;28;20096;-73
2022/03/08 17:06:02;;;;;;;15.43;5.00;;;28.00;60.30;;;;;;5079749;28;20039;-75
2022/03/08 17:08:29;;;;;;;21.70;5.68;;;27.90;60.40;;;;;;5079910;28;20390;-74
2022/03/08 17:10:57;;;;;;;19.67;5.47;;;27.90;60.60;;;;;;5082576;28;20493;-74
2022/03/08 17:13:23;;;;;;;15.52;6.03;;;27.80;60.60;;;;;;5082290;28;20463;-73
2022/03/08 17:15:50;;;;;;;29.98;6.85;;;27.80;60.90;;;;;;5082193;28;20104;-73
2022/03/08 17:18:16;;;;;;;22.58;7.30;;;27.70;61.20;;;;;;5081421;28;20111;-73
2022/03/08 17:20:44;;;;;;;20.73;8.45;;;27.70;61.30;;;;;;5066600;28;20017;-73
2022/03/08 17:23:11;;;;;;;19.60;6.57;;;27.60;61.30;;;;;;5067030;28;20425;-73
2022/03/08 17:25:38;;;;;;;41.63;7.43;;;27.60;61.30;;;;;;5067357;28;20467;-72
2022/03/08 17:28:05;;;;;;;39.60;7.97;;;27.60;61.40;;;;;;5069424;28;20129;-73
2022/03/08 17:30:31;;;;;;;25.15;5.65;;;27.50;61.40;;;;;;5067533;28;20032;-73
2022/03/08 17:32:58;;;;;;;33.60;5.72;;;27.50;61.40;;;;;;5066495;28;20066;-73
2022/03/08 17:35:24;;;;;;;29.58;6.70;;;27.40;61.40;;;;;;5068322;28;20533;-74
2022/03/08 17:37:52;;;;;;;21.85;6.05;;;27.40;61.50;;;;;;5070073;28;20016;-72
2022/03/08 17:40:19;;;;;;;22.83;5.45;;;27.40;61.60;;;;;;5069548;28;20024;-73
2022/03/08 17:42:46;;;;;;;19.42;6.15;;;27.40;61.50;;;;;;5066796;28;20032;-73
2022/03/08 17:45:12;;;;;;;19.80;6.75;;;27.30;61.50;;;;;;5051099;28;20107;-74
2022/03/08 17:47:39;;;;;;;22.17;5.90;;;27.30;61.40;;;;;;5070463;28;20049;-72
2022/03/08 17:50:05;;;;;;;17.15;5.95;;;27.20;61.90;;;;;;5071272;28;20024;-72
2022/03/08 17:52:32;;;;;;;20.45;5.18;;;27.20;61.50;;;;;;5070691;28;20073;-74
2022/03/08 17:54:59;;;;;;;16.25;4.85;;;27.20;61.60;;;;;;5067645;28;20391;-73
2022/03/08 17:57:25;;;;;;;44.92;8.40;;;27.20;61.50;;;;;;5068942;28;20036;-73
2022/03/08 17:59:52;;;;;;;22.55;4.93;;;27.20;61.60;;;;;;5067539;28;20028;-72
2022/03/08 18:02:18;;;;;;;14.55;4.15;;;27.20;61.60;;;;;;5066775;28;20028;-71
2022/03/08 18:04:45;;;;;;;16.90;4.95;;;27.10;61.90;;;;;;5067153;28;20024;-75
2022/03/08 18:07:11;;;;;;;17.80;5.13;;;26.80;62.30;;;;;;5069553;28;20059;-71
2022/03/08 18:09:38;;;;;;;18.13;4.03;;;26.70;62.80;;;;;;5065368;28;20039;-73
2022/03/08 18:12:06;;;;;;;9.60;3.90;;;26.50;63.10;;;;;;5065980;28;20032;-71
2022/03/08 18:14:32;;;;;;;17.65;6.65;;;26.40;63.80;;;;;;5065320;28;20063;-72
2022/03/08 18:16:59;;;;;;;12.65;5.40;;;26.30;64.00;;;;;;5066148;28;20021;-72
2022/03/08 18:19:25;;;;;;;15.27;4.38;;;26.20;64.30;;;;;;5065532;28;20035;-72
2022/03/08 18:21:52;;;;;;;11.68;3.92;;;26.20;64.60;;;;;;5065589;28;20025;-72
2022/03/08 18:24:18;;;;;;;10.57;4.05;;;26.00;64.80;;;;;;5065325;28;20048;-73
2022/03/08 18:26:45;;;;;;;11.10;3.58;;;26.00;65.10;;;;;;5066349;28;20084;-73
2022/03/08 18:29:11;;;;;;;17.55;5.13;;;26.00;65.20;;;;;;5065580;28;20074;-72
2022/03/08 18:31:38;;;;;;;11.55;4.03;;;25.90;65.30;;;;;;5064327;28;20020;-73
2022/03/08 18:34:05;;;;;;;11.85;3.95;;;25.90;65.40;;;;;;5066637;28;20362;-73
2022/03/08 18:36:31;;;;;;;10.23;4.38;;;25.90;65.50;;;;;;5065200;28;20020;-71
2022/03/08 18:38:58;;;;;;;19.98;6.07;;;25.90;65.60;;;;;;5065668;28;20051;-72
2022/03/08 18:41:24;;;;;;;19.63;7.82;;;25.80;65.60;;;;;;5066241;28;20494;-71
2022/03/08 18:43:52;;;;;;;29.38;12.52;;;25.80;65.60;;;;;;5064233;28;20070;-70
2022/03/08 18:46:20;;;;;;;31.77;12.15;;;25.90;65.50;;;;;;5063796;28;20020;-72
2022/03/08 18:48:47;;;;;;;36.53;10.20;;;26.00;65.50;;;;;;5063241;28;20047;-71
2022/03/08 18:51:13;;;;;;;19.67;6.20;;;26.10;65.30;;;;;;5065004;28;20020;-71
2022/03/08 18:53:40;;;;;;;17.20;6.18;;;26.20;65.00;;;;;;5064895;28;20035;-74
2022/03/08 18:56:06;;;;;;;12.70;4.47;;;26.20;64.60;;;;;;5062850;28;20028;-72
2022/03/08 18:58:33;;;;;;;11.05;4.45;;;26.30;64.40;;;;;;5065673;28;20017;-71
2022/03/08 19:00:59;;;;;;;18.00;4.50;;;26.30;64.20;;;;;;5064774;28;20024;-72
2022/03/08 19:03:26;;;;;;;16.15;5.53;;;26.30;64.20;;;;;;5065721;28;20036;-72
2022/03/08 19:05:52;;;;;;;13.50;4.53;;;26.30;64.10;;;;;;5065282;28;20382;-71
2022/03/08 19:08:19;;;;;;;15.43;4.05;;;26.30;64.20;;;;;;5066675;28;20498;-72
2022/03/08 19:10:45;;;;;;;42.03;8.13;;;26.30;64.20;;;;;;5065848;28;20108;-71
2022/03/08 19:13:12;;;;;;;41.22;8.63;;;26.40;64.40;;;;;;5064680;28;20012;-70
2022/03/08 19:15:38;;;;;;;53.45;14.75;;;26.30;64.90;;;;;;5067000;28;20020;-70
2022/03/08 19:18:05;;;;;;;25.42;13.00;;;26.30;65.20;;;;;;5065470;28;20056;-70
2022/03/08 19:20:31;;;;;;;26.85;9.90;;;26.30;65.30;;;;;;5066828;28;20012;-70
2022/03/08 19:22:58;;;;;;;24.02;7.50;;;26.30;65.30;;;;;;5065865;28;20048;-71
2022/03/08 19:25:24;;;;;;;21.58;6.40;;;26.30;65.10;;;;;;5066374;28;20032;-70
2022/03/08 19:27:51;;;;;;;19.95;6.93;;;26.30;65.00;;;;;;5064773;28;20032;-71
2022/03/08 19:30:17;;;;;;;30.50;6.32;;;26.30;65.10;;;;;;5065552;28;20066;-71
2022/03/08 19:32:44;;;;;;;52.40;9.48;;;26.30;65.30;;;;;;5065900;28;20021;-70
2022/03/08 19:35:11;;;;;;;25.25;5.07;;;26.30;65.30;;;;;;5065462;28;20017;-70
2022/03/08 19:37:37;;;;;;;25.65;8.93;;;26.30;65.40;;;;;;5065864;28;20063;-71
2022/03/08 19:40:04;;;;;;;21.27;6.32;;;26.30;65.40;;;;;;5063295;28;20443;-71
2022/03/08 19:42:31;;;;;;;22.42;5.25;;;26.30;65.40;;;;;;5063007;28;20024;-72
2022/03/08 19:44:57;;;;;;;25.10;7.03;;;26.20;65.20;;;;;;5064851;28;20479;-71
2022/03/08 19:47:24;;;;;;;19.98;5.03;;;26.20;65.00;;;;;;5067047;28;20036;-71
2022/03/08 19:49:50;;;;;;;23.70;5.72;;;26.20;64.90;;;;;;5065500;28;20028;-71
2022/03/08 19:52:17;;;;;;;13.55;5.35;;;26.20;64.90;;;;;;5064657;28;20016;-70
2022/03/08 19:54:44;;;;;;;16.05;5.47;;;26.20;64.90;;;;;;5065756;28;20020;-71
2022/03/08 19:57:10;;;;;;;18.25;4.75;;;26.10;64.80;;;;;;5065121;28;20029;-71
2022/03/08 19:59:37;;;;;;;50.28;7.00;;;26.10;64.90;;;;;;5065243;28;20020;-71
2022/03/08 20:02:04;;;;;;;44.42;6.95;;;26.10;65.20;;;;;;5063630;28;20470;-71
2022/03/08 20:04:31;;;;;;;36.13;6.88;;;26.10;65.40;;;;;;5067047;28;20032;-71
2022/03/08 20:06:57;;;;;;;44.80;6.72;;;26.10;65.50;;;;;;5067089;28;20024;-71
2022/03/08 20:09:25;;;;;;;34.10;6.55;;;26.10;65.60;;;;;;5065891;28;20051;-71
2022/03/08 20:11:51;;;;;;;22.52;4.60;;;26.10;65.60;;;;;;5064158;28;20028;-72
2022/03/08 20:14:18;;;;;;;18.60;6.22;;;26.10;65.50;;;;;;5065069;28;20069;-71
2022/03/08 20:16:44;;;;;;;14.00;5.05;;;26.00;65.20;;;;;;5063806;28;20033;-71
2022/03/08 20:19:11;;;;;;;13.32;4.35;;;26.00;65.10;;;;;;5064090;28;20052;-72
2022/03/08 20:21:37;;;;;;;14.95;5.32;;;26.00;65.10;;;;;;5065570;28;20024;-71
2022/03/08 20:24:04;;;;;;;9.40;4.70;;;26.00;65.00;;;;;;5064531;28;20092;-72
2022/03/08 20:26:31;;;;;;;19.63;5.78;;;26.00;65.00;;;;;;5065262;28;20060;-71
2022/03/08 20:28:58;;;;;;;17.08;5.50;;;26.00;65.00;;;;;;5063068;28;20039;-71
2022/03/08 20:31:24;;;;;;;12.73;4.45;;;25.90;64.90;;;;;;5065012;28;20028;-71
2022/03/08 20:33:51;;;;;;;19.73;6.15;;;25.90;64.90;;;;;;5065488;28;20383;-71
2022/03/08 20:36:17;;;;;;;15.68;6.00;;;25.90;64.90;;;;;;5060922;28;20052;-71
2022/03/08 20:38:44;;;;;;;14.45;6.50;;;25.90;64.90;;;;;;5063716;28;20077;-72
2022/03/08 20:41:11;;;;;;;14.75;5.50;;;25.90;64.90;;;;;;5067660;28;20112;-71
2022/03/08 20:43:38;;;;;;;14.52;5.28;;;25.90;64.90;;;;;;5063727;28;20021;-72
2022/03/08 20:46:04;;;;;;;16.27;5.75;;;25.90;64.90;;;;;;5064799;28;20097;-72
2022/03/08 20:48:31;;;;;;;13.73;5.57;;;25.80;64.90;;;;;;5064112;28;20064;-72
2022/03/08 20:50:59;;;;;;;20.08;5.90;;;25.80;65.60;;;;;;5066424;28;20063;-72
2022/03/08 20:53:25;;;;;;;18.15;5.15;;;25.80;64.90;;;;;;5044805;28;20368;-70
2022/03/08 20:55:52;;;;;;;16.00;6.90;;;25.80;64.90;;;;;;5068660;28;20020;-72
2022/03/08 20:58:18;;;;;;;18.38;4.63;;;25.70;64.90;;;;;;5068009;28;20032;-73
2022/03/08 21:00:45;;;;;;;16.88;6.10;;;25.80;64.90;;;;;;5069341;28;20032;-72
2022/03/08 21:03:11;;;;;;;13.15;5.68;;;25.80;64.90;;;;;;5067553;28;20013;-72
2022/03/08 21:05:38;;;;;;;18.63;5.45;;;25.70;64.90;;;;;;5067870;28;20009;-71
2022/03/08 21:08:05;;;;;;;25.08;6.47;;;25.70;64.90;;;;;;5068843;28;20029;-71
2022/03/08 21:10:31;;;;;;;22.27;4.97;;;25.70;65.20;;;;;;5065677;28;20020;-72
2022/03/08 21:12:58;;;;;;;21.77;6.95;;;25.70;65.70;;;;;;5067165;28;20128;-72
2022/03/08 21:15:24;;;;;;;16.95;6.00;;;25.70;65.90;;;;;;5066959;28;20028;-72
2022/03/08 21:17:51;;;;;;;14.25;5.72;;;25.70;65.90;;;;;;5067382;28;20047;-72
2022/03/08 21:20:17;;;;;;;11.63;5.82;;;25.70;65.90;;;;;;5066259;28;20008;-71
2022/03/08 21:22:44;;;;;;;13.35;5.20;;;25.70;65.90;;;;;;5066092;28;20480;-71
2022/03/08 21:25:11;;;;;;;15.52;5.53;;;25.70;65.80;;;;;;5067195;28;20094;-72
2022/03/08 21:27:37;;;;;;;35.50;5.82;;;25.70;65.90;;;;;;5066132;28;20025;-71
2022/03/08 21:30:05;;;;;;;41.40;7.28;;;25.70;66.10;;;;;;5067896;28;20021;-72
2022/03/08 21:32:31;;;;;;;51.42;8.40;;;25.70;66.40;;;;;;5065296;28;20399;-70
2022/03/08 21:34:58;;;;;;;56.58;7.80;;;25.70;66.70;;;;;;5067159;28;20024;-71
2022/03/08 21:37:24;;;;;;;34.10;7.38;;;25.70;66.70;;;;;;5065837;28;20029;-72
2022/03/08 21:39:51;;;;;;;24.33;5.68;;;25.70;66.50;;;;;;5066089;28;20027;-72
2022/03/08 21:42:18;;;;;;;18.65;5.63;;;25.70;66.40;;;;;;5065140;28;20020;-70
2022/03/08 21:44:44;;;;;;;15.98;6.90;;;25.60;66.20;;;;;;5067598;28;20736;-70
2022/03/08 21:47:14;;;;;;;23.10;7.10;;;25.60;66.10;;;;;;5069229;28;20051;-72
2022/03/08 21:49:40;;;;;;;13.77;7.03;;;25.60;66.10;;;;;;5066914;28;20047;-72
2022/03/08 21:52:07;;;;;;;17.13;7.13;;;25.60;66.10;;;;;;5067308;28;20066;-70
2022/03/08 21:54:35;;;;;;;14.65;6.80;;;25.50;66.00;;;;;;5065887;28;20095;-71
2022/03/08 21:57:01;;;;;;;19.40;6.53;;;25.50;66.00;;;;;;5049749;28;20451;-70
2022/03/08 21:59:28;;;;;;;15.10;7.05;;;25.50;66.10;;;;;;5066023;28;20514;-70
2022/03/08 22:01:54;;;;;;;17.08;7.30;;;25.50;66.10;;;;;;5081529;28;20123;-70
2022/03/08 22:04:21;;;;;;;11.23;6.60;;;25.50;66.10;;;;;;5066808;28;20020;-71
2022/03/08 22:06:47;;;;;;;12.45;6.80;;;25.40;66.10;;;;;;5068434;28;20584;-70
2022/03/08 22:09:14;;;;;;;10.77;6.40;;;25.40;66.10;;;;;;5067528;28;20023;-70
2022/03/08 22:11:41;;;;;;;17.60;7.50;;;25.40;66.10;;;;;;5064523;28;20013;-70
2022/03/08 22:14:09;;;;;;;16.58;7.47;;;25.40;66.10;;;;;;5069067;28;20064;-71
2022/03/08 22:16:35;;;;;;;17.90;8.07;;;25.40;66.20;;;;;;5066829;28;20013;-72
2022/03/08 22:19:03;;;;;;;14.52;6.55;;;25.40;66.30;;;;;;5066139;28;20041;-71
2022/03/08 22:21:32;;;;;;;14.60;6.05;;;25.30;66.20;;;;;;5067081;28;20028;-71
2022/03/08 22:23:59;;;;;;;17.30;6.97;;;25.40;66.30;;;;;;5066401;28;20066;-70
2022/03/08 22:26:25;;;;;;;20.15;6.25;;;25.40;66.50;;;;;;5066013;28;20422;-72
2022/03/08 22:28:52;;;;;;;13.27;5.43;;;25.40;66.60;;;;;;5065661;28;20764;-71
2022/03/08 22:31:18;;;;;;;12.05;5.20;;;25.30;66.60;;;;;;5068196;28;20040;-71
2022/03/08 22:33:45;;;;;;;16.45;4.80;;;25.30;66.60;;;;;;5067653;28;20517;-72
2022/03/08 22:36:11;;;;;;;11.77;4.80;;;25.30;66.70;;;;;;5067040;28;20024;-72
2022/03/08 22:38:41;;;;;;;13.77;5.03;;;25.30;66.90;;;;;;5066391;28;20017;-71
2022/03/08 22:41:09;;;;;;;14.63;4.40;;;25.30;67.00;;;;;;5066345;28;20112;-71
2022/03/08 22:43:36;;;;;;;10.52;3.85;;;25.30;67.00;;;;;;5065034;28;20442;-73
2022/03/08 22:46:04;;;;;;;11.20;3.55;;;25.30;67.10;;;;;;5064975;28;20032;-72
2022/03/08 22:48:31;;;;;;;14.52;3.90;;;25.20;67.00;;;;;;5066906;28;20037;-72